sensor_id;sensor_type;location;lat;lon;timestamp;P1;durP1;ratioP1;P2;durP2;ratioP2
4738;SDS011;2383;48.632;10.156;2022-10-22T00:03:55;11.90;;;5.65;;
4738;SDS011;2383;48.632;10.156;2022-10-22T00:07:57;7.25;;;3.13;;
4738;SDS011;2383;48.632;10.156;2022-10-22T00:11:58;2.67;;;1.92;;
4738;SDS011;2383;48.632;10.156;2022-10-22T00:16:00;2.78;;;1.38;;
4738;SDS011;2383;48.632;10.156;2022-10-22T00:20:03;5.05;;;1.52;;
4738;SDS011;2383;48.632;10.156;2022-10-22T00:24:05;5.38;;;1.50;;
4738;SDS011;2383;48.632;10.156;2022-10-22T00:28:07;2.13;;;1.33;;
4738;SDS011;2383;48.632;10.156;2022-10-22T00:32:09;1.45;;;1.25;;
4738;SDS011;2383;48.632;10.156;2022-10-22T00:36:11;3.63;;;1.30;;
4738;SDS011;2383;48.632;10.156;2022-10-22T00:40:13;1.58;;;1.48;;
4738;SDS011;2383;48.632;10.156;2022-10-22T00:48:55;2.00;;;1.10;;
4738;SDS011;2383;48.632;10.156;2022-10-22T00:52:59;2.95;;;1.10;;
4738;SDS011;2383;48.632;10.156;2022-10-22T00:57:02;4.03;;;1.25;;
4738;SDS011;2383;48.632;10.156;2022-10-22T01:01:04;1.25;;;1.10;;
4738;SDS011;2383;48.632;10.156;2022-10-22T01:05:09;1.98;;;0.90;;
4738;SDS011;2383;48.632;10.156;2022-10-22T01:13:39;2.15;;;0.85;;
4738;SDS011;2383;48.632;10.156;2022-10-22T01:17:56;1.75;;;1.25;;
4738;SDS011;2383;48.632;10.156;2022-10-22T01:30:38;3.13;;;1.17;;
4738;SDS011;2383;48.632;10.156;2022-10-22T01:34:42;2.33;;;0.90;;
4738;SDS011;2383;48.632;10.156;2022-10-22T01:38:46;1.10;;;0.93;;
4738;SDS011;2383;48.632;10.156;2022-10-22T01:42:58;1.50;;;0.98;;
4738;SDS011;2383;48.632;10.156;2022-10-22T01:51:39;1.80;;;1.00;;
4738;SDS011;2383;48.632;10.156;2022-10-22T02:08:54;0.85;;;0.70;;
4738;SDS011;2383;48.632;10.156;2022-10-22T02:12:57;1.27;;;0.67;;
4738;SDS011;2383;48.632;10.156;2022-10-22T02:17:01;1.40;;;0.68;;
4738;SDS011;2383;48.632;10.156;2022-10-22T02:21:03;1.02;;;0.90;;
4738;SDS011;2383;48.632;10.156;2022-10-22T02:25:10;2.45;;;0.70;;
4738;SDS011;2383;48.632;10.156;2022-10-22T02:29:14;2.17;;;0.98;;
4738;SDS011;2383;48.632;10.156;2022-10-22T02:33:29;2.75;;;0.88;;
4738;SDS011;2383;48.632;10.156;2022-10-22T02:37:35;1.17;;;0.77;;
4738;SDS011;2383;48.632;10.156;2022-10-22T02:41:37;2.05;;;0.77;;
4738;SDS011;2383;48.632;10.156;2022-10-22T02:45:39;0.95;;;0.70;;
4738;SDS011;2383;48.632;10.156;2022-10-22T02:49:41;2.20;;;0.73;;
4738;SDS011;2383;48.632;10.156;2022-10-22T02:53:43;1.90;;;1.02;;
4738;SDS011;2383;48.632;10.156;2022-10-22T02:57:45;0.95;;;0.73;;
4738;SDS011;2383;48.632;10.156;2022-10-22T03:01:47;3.20;;;0.77;;
4738;SDS011;2383;48.632;10.156;2022-10-22T03:05:49;1.53;;;1.10;;
4738;SDS011;2383;48.632;10.156;2022-10-22T03:09:54;0.93;;;0.82;;
4738;SDS011;2383;48.632;10.156;2022-10-22T03:13:56;4.00;;;1.00;;
4738;SDS011;2383;48.632;10.156;2022-10-22T03:17:58;0.60;;;0.60;;
4738;SDS011;2383;48.632;10.156;2022-10-22T03:22:00;2.00;;;1.05;;
4738;SDS011;2383;48.632;10.156;2022-10-22T03:26:05;1.98;;;0.73;;
4738;SDS011;2383;48.632;10.156;2022-10-22T03:30:09;1.77;;;0.88;;
4738;SDS011;2383;48.632;10.156;2022-10-22T03:34:11;1.33;;;0.80;;
4738;SDS011;2383;48.632;10.156;2022-10-22T03:38:13;2.95;;;0.80;;
4738;SDS011;2383;48.632;10.156;2022-10-22T03:42:16;1.40;;;0.95;;
4738;SDS011;2383;48.632;10.156;2022-10-22T03:46:18;6.72;;;1.23;;
4738;SDS011;2383;48.632;10.156;2022-10-22T03:50:20;3.22;;;0.70;;
4738;SDS011;2383;48.632;10.156;2022-10-22T03:54:22;1.95;;;0.70;;
4738;SDS011;2383;48.632;10.156;2022-10-22T03:58:24;4.85;;;1.35;;
4738;SDS011;2383;48.632;10.156;2022-10-22T04:02:26;2.95;;;1.02;;
4738;SDS011;2383;48.632;10.156;2022-10-22T04:06:28;4.13;;;0.88;;
4738;SDS011;2383;48.632;10.156;2022-10-22T04:10:32;1.10;;;0.77;;
4738;SDS011;2383;48.632;10.156;2022-10-22T04:14:34;2.65;;;0.95;;
4738;SDS011;2383;48.632;10.156;2022-10-22T04:18:36;3.90;;;0.93;;
4738;SDS011;2383;48.632;10.156;2022-10-22T04:22:39;2.25;;;1.00;;
4738;SDS011;2383;48.632;10.156;2022-10-22T04:26:41;1.67;;;0.90;;
4738;SDS011;2383;48.632;10.156;2022-10-22T04:30:43;1.23;;;0.90;;
4738;SDS011;2383;48.632;10.156;2022-10-22T04:34:44;1.67;;;0.95;;
4738;SDS011;2383;48.632;10.156;2022-10-22T04:38:46;1.40;;;1.00;;
4738;SDS011;2383;48.632;10.156;2022-10-22T04:42:53;2.33;;;0.85;;
4738;SDS011;2383;48.632;10.156;2022-10-22T04:46:55;1.15;;;1.05;;
4738;SDS011;2383;48.632;10.156;2022-10-22T04:50:57;4.45;;;1.25;;
4738;SDS011;2383;48.632;10.156;2022-10-22T04:54:59;32.83;;;22.88;;
4738;SDS011;2383;48.632;10.156;2022-10-22T04:59:02;8.85;;;7.10;;
4738;SDS011;2383;48.632;10.156;2022-10-22T05:03:05;12.10;;;8.48;;
4738;SDS011;2383;48.632;10.156;2022-10-22T05:07:07;1.73;;;1.60;;
4738;SDS011;2383;48.632;10.156;2022-10-22T05:11:17;3.63;;;1.10;;
4738;SDS011;2383;48.632;10.156;2022-10-22T05:15:23;4.07;;;2.88;;
4738;SDS011;2383;48.632;10.156;2022-10-22T05:19:26;3.10;;;2.78;;
4738;SDS011;2383;48.632;10.156;2022-10-22T05:23:30;2.67;;;2.42;;
4738;SDS011;2383;48.632;10.156;2022-10-22T05:27:31;7.32;;;4.25;;
4738;SDS011;2383;48.632;10.156;2022-10-22T05:31:33;9.63;;;3.28;;
4738;SDS011;2383;48.632;10.156;2022-10-22T05:35:35;8.03;;;4.87;;
4738;SDS011;2383;48.632;10.156;2022-10-22T05:39:37;8.23;;;4.40;;
4738;SDS011;2383;48.632;10.156;2022-10-22T05:43:40;6.23;;;4.53;;
4738;SDS011;2383;48.632;10.156;2022-10-22T05:47:43;5.13;;;4.18;;
4738;SDS011;2383;48.632;10.156;2022-10-22T05:51:44;4.32;;;3.00;;
4738;SDS011;2383;48.632;10.156;2022-10-22T05:55:47;4.82;;;2.92;;
4738;SDS011;2383;48.632;10.156;2022-10-22T05:59:56;3.67;;;3.28;;
4738;SDS011;2383;48.632;10.156;2022-10-22T06:03:58;6.28;;;4.18;;
4738;SDS011;2383;48.632;10.156;2022-10-22T06:08:02;6.75;;;3.70;;
4738;SDS011;2383;48.632;10.156;2022-10-22T06:12:19;2.92;;;2.63;;
4738;SDS011;2383;48.632;10.156;2022-10-22T06:16:21;4.38;;;2.50;;
4738;SDS011;2383;48.632;10.156;2022-10-22T06:20:23;5.20;;;3.50;;
4738;SDS011;2383;48.632;10.156;2022-10-22T06:24:25;5.53;;;3.22;;
4738;SDS011;2383;48.632;10.156;2022-10-22T06:28:29;5.63;;;3.17;;
4738;SDS011;2383;48.632;10.156;2022-10-22T06:32:31;6.47;;;3.15;;
4738;SDS011;2383;48.632;10.156;2022-10-22T06:36:33;6.00;;;3.53;;
4738;SDS011;2383;48.632;10.156;2022-10-22T06:40:35;7.28;;;4.20;;
4738;SDS011;2383;48.632;10.156;2022-10-22T06:44:37;8.73;;;4.75;;
4738;SDS011;2383;48.632;10.156;2022-10-22T06:48:39;9.18;;;4.90;;
4738;SDS011;2383;48.632;10.156;2022-10-22T06:52:41;6.15;;;4.85;;
4738;SDS011;2383;48.632;10.156;2022-10-22T06:56:43;10.75;;;5.38;;
4738;SDS011;2383;48.632;10.156;2022-10-22T07:00:46;6.85;;;6.15;;
4738;SDS011;2383;48.632;10.156;2022-10-22T07:04:48;7.28;;;6.50;;
4738;SDS011;2383;48.632;10.156;2022-10-22T07:08:50;8.10;;;6.88;;
4738;SDS011;2383;48.632;10.156;2022-10-22T07:12:52;9.13;;;6.82;;
4738;SDS011;2383;48.632;10.156;2022-10-22T07:16:54;8.48;;;6.20;;
4738;SDS011;2383;48.632;10.156;2022-10-22T07:20:55;6.95;;;6.25;;
4738;SDS011;2383;48.632;10.156;2022-10-22T07:24:57;10.35;;;7.07;;
4738;SDS011;2383;48.632;10.156;2022-10-22T07:29:04;7.68;;;6.82;;
4738;SDS011;2383;48.632;10.156;2022-10-22T07:33:06;7.47;;;6.50;;
4738;SDS011;2383;48.632;10.156;2022-10-22T07:37:11;7.35;;;6.30;;
4738;SDS011;2383;48.632;10.156;2022-10-22T07:41:14;8.43;;;5.97;;
4738;SDS011;2383;48.632;10.156;2022-10-22T07:45:16;8.57;;;6.40;;
4738;SDS011;2383;48.632;10.156;2022-10-22T07:49:18;7.53;;;5.95;;
4738;SDS011;2383;48.632;10.156;2022-10-22T07:53:20;8.65;;;7.03;;
4738;SDS011;2383;48.632;10.156;2022-10-22T07:57:25;14.85;;;12.25;;
4738;SDS011;2383;48.632;10.156;2022-10-22T08:01:27;21.38;;;14.25;;
4738;SDS011;2383;48.632;10.156;2022-10-22T08:05:29;13.43;;;8.07;;
4738;SDS011;2383;48.632;10.156;2022-10-22T08:09:30;8.35;;;6.68;;
4738;SDS011;2383;48.632;10.156;2022-10-22T08:13:32;7.63;;;6.68;;
4738;SDS011;2383;48.632;10.156;2022-10-22T08:17:34;10.32;;;7.60;;
4738;SDS011;2383;48.632;10.156;2022-10-22T08:21:36;6.43;;;4.80;;
4738;SDS011;2383;48.632;10.156;2022-10-22T08:25:38;6.40;;;4.93;;
4738;SDS011;2383;48.632;10.156;2022-10-22T08:29:40;7.43;;;5.50;;
4738;SDS011;2383;48.632;10.156;2022-10-22T08:33:42;7.53;;;5.75;;
4738;SDS011;2383;48.632;10.156;2022-10-22T08:37:44;8.95;;;5.57;;
4738;SDS011;2383;48.632;10.156;2022-10-22T08:46:18;5.32;;;4.47;;
4738;SDS011;2383;48.632;10.156;2022-10-22T08:50:42;6.20;;;4.75;;
4738;SDS011;2383;48.632;10.156;2022-10-22T08:54:52;7.13;;;4.85;;
4738;SDS011;2383;48.632;10.156;2022-10-22T08:59:00;12.43;;;4.53;;
4738;SDS011;2383;48.632;10.156;2022-10-22T09:03:15;4.90;;;4.32;;
4738;SDS011;2383;48.632;10.156;2022-10-22T09:07:23;4.10;;;3.65;;
4738;SDS011;2383;48.632;10.156;2022-10-22T09:11:27;3.80;;;2.20;;
4738;SDS011;2383;48.632;10.156;2022-10-22T09:15:36;2.70;;;2.08;;
4738;SDS011;2383;48.632;10.156;2022-10-22T09:28:19;1.83;;;1.58;;
4738;SDS011;2383;48.632;10.156;2022-10-22T09:32:21;2.60;;;1.20;;
4738;SDS011;2383;48.632;10.156;2022-10-22T09:36:23;2.83;;;1.55;;
4738;SDS011;2383;48.632;10.156;2022-10-22T09:40:35;2.08;;;1.70;;
4738;SDS011;2383;48.632;10.156;2022-10-22T09:44:53;2.63;;;1.40;;
4738;SDS011;2383;48.632;10.156;2022-10-22T09:49:05;1.67;;;1.10;;
4738;SDS011;2383;48.632;10.156;2022-10-22T09:57:22;1.55;;;1.10;;
4738;SDS011;2383;48.632;10.156;2022-10-22T10:01:31;2.00;;;0.90;;
4738;SDS011;2383;48.632;10.156;2022-10-22T10:05:38;1.58;;;1.13;;
4738;SDS011;2383;48.632;10.156;2022-10-22T10:09:41;1.70;;;1.23;;
4738;SDS011;2383;48.632;10.156;2022-10-22T10:13:49;5.25;;;1.80;;
4738;SDS011;2383;48.632;10.156;2022-10-22T10:26:38;2.40;;;1.33;;
4738;SDS011;2383;48.632;10.156;2022-10-22T10:35:15;1.67;;;1.20;;
4738;SDS011;2383;48.632;10.156;2022-10-22T10:48:44;4.28;;;1.60;;
4738;SDS011;2383;48.632;10.156;2022-10-22T10:56:59;2.00;;;1.77;;
4738;SDS011;2383;48.632;10.156;2022-10-22T11:01:18;2.72;;;1.52;;
4738;SDS011;2383;48.632;10.156;2022-10-22T11:10:03;2.63;;;1.98;;
4738;SDS011;2383;48.632;10.156;2022-10-22T11:14:20;2.67;;;1.50;;
4738;SDS011;2383;48.632;10.156;2022-10-22T11:18:38;1.75;;;1.40;;
4738;SDS011;2383;48.632;10.156;2022-10-22T11:22:54;1.88;;;1.13;;
4738;SDS011;2383;48.632;10.156;2022-10-22T11:27:32;2.67;;;1.20;;
4738;SDS011;2383;48.632;10.156;2022-10-22T11:31:42;2.22;;;1.40;;
4738;SDS011;2383;48.632;10.156;2022-10-22T11:35:47;2.10;;;1.58;;
4738;SDS011;2383;48.632;10.156;2022-10-22T11:39:51;2.67;;;1.40;;
4738;SDS011;2383;48.632;10.156;2022-10-22T11:43:58;2.88;;;1.42;;
4738;SDS011;2383;48.632;10.156;2022-10-22T11:48:17;3.38;;;1.27;;
4738;SDS011;2383;48.632;10.156;2022-10-22T11:56:37;1.27;;;1.15;;
4738;SDS011;2383;48.632;10.156;2022-10-22T12:00:40;3.58;;;1.40;;
4738;SDS011;2383;48.632;10.156;2022-10-22T12:04:48;1.73;;;1.00;;
4738;SDS011;2383;48.632;10.156;2022-10-22T12:12:56;3.10;;;1.10;;
4738;SDS011;2383;48.632;10.156;2022-10-22T12:17:07;1.45;;;0.85;;
4738;SDS011;2383;48.632;10.156;2022-10-22T12:21:12;1.60;;;0.98;;
4738;SDS011;2383;48.632;10.156;2022-10-22T12:25:28;1.92;;;0.80;;
4738;SDS011;2383;48.632;10.156;2022-10-22T12:29:36;1.23;;;0.90;;
4738;SDS011;2383;48.632;10.156;2022-10-22T12:33:37;1.77;;;0.80;;
4738;SDS011;2383;48.632;10.156;2022-10-22T12:37:39;3.25;;;1.45;;
4738;SDS011;2383;48.632;10.156;2022-10-22T12:41:41;3.38;;;0.80;;
4738;SDS011;2383;48.632;10.156;2022-10-22T12:45:45;2.65;;;0.80;;
4738;SDS011;2383;48.632;10.156;2022-10-22T12:49:48;1.98;;;1.13;;
4738;SDS011;2383;48.632;10.156;2022-10-22T12:53:51;3.70;;;0.98;;
4738;SDS011;2383;48.632;10.156;2022-10-22T12:57:55;2.80;;;1.00;;
4738;SDS011;2383;48.632;10.156;2022-10-22T13:01:58;2.85;;;0.90;;
4738;SDS011;2383;48.632;10.156;2022-10-22T13:10:40;3.33;;;1.00;;
4738;SDS011;2383;48.632;10.156;2022-10-22T13:14:57;1.65;;;0.80;;
4738;SDS011;2383;48.632;10.156;2022-10-22T13:23:39;3.47;;;0.80;;
4738;SDS011;2383;48.632;10.156;2022-10-22T13:27:58;4.03;;;0.80;;
4738;SDS011;2383;48.632;10.156;2022-10-22T13:32:02;2.50;;;0.95;;
4738;SDS011;2383;48.632;10.156;2022-10-22T13:36:04;2.28;;;0.90;;
4738;SDS011;2383;48.632;10.156;2022-10-22T13:40:12;5.82;;;0.98;;
4738;SDS011;2383;48.632;10.156;2022-10-22T13:44:14;3.67;;;1.23;;
4738;SDS011;2383;48.632;10.156;2022-10-22T13:48:18;3.15;;;0.98;;
4738;SDS011;2383;48.632;10.156;2022-10-22T13:52:26;2.20;;;1.30;;
4738;SDS011;2383;48.632;10.156;2022-10-22T13:56:38;2.33;;;0.98;;
4738;SDS011;2383;48.632;10.156;2022-10-22T14:00:41;3.45;;;1.10;;
4738;SDS011;2383;48.632;10.156;2022-10-22T14:04:45;4.25;;;1.60;;
4738;SDS011;2383;48.632;10.156;2022-10-22T14:08:48;6.63;;;1.55;;
4738;SDS011;2383;48.632;10.156;2022-10-22T14:12:55;2.67;;;1.10;;
4738;SDS011;2383;48.632;10.156;2022-10-22T14:17:00;3.65;;;1.10;;
4738;SDS011;2383;48.632;10.156;2022-10-22T14:21:02;2.00;;;0.90;;
4738;SDS011;2383;48.632;10.156;2022-10-22T14:25:09;1.70;;;0.90;;
4738;SDS011;2383;48.632;10.156;2022-10-22T14:29:14;5.57;;;1.15;;
4738;SDS011;2383;48.632;10.156;2022-10-22T14:33:29;3.97;;;1.00;;
4738;SDS011;2383;48.632;10.156;2022-10-22T14:37:32;2.38;;;1.05;;
4738;SDS011;2383;48.632;10.156;2022-10-22T14:41:34;5.97;;;1.23;;
4738;SDS011;2383;48.632;10.156;2022-10-22T14:45:38;4.97;;;1.20;;
4738;SDS011;2383;48.632;10.156;2022-10-22T14:49:39;3.75;;;1.02;;
4738;SDS011;2383;48.632;10.156;2022-10-22T14:53:41;3.70;;;0.85;;
4738;SDS011;2383;48.632;10.156;2022-10-22T14:57:43;3.22;;;1.30;;
4738;SDS011;2383;48.632;10.156;2022-10-22T15:01:47;6.63;;;0.95;;
4738;SDS011;2383;48.632;10.156;2022-10-22T15:05:50;3.92;;;0.80;;
4738;SDS011;2383;48.632;10.156;2022-10-22T15:09:53;3.63;;;0.80;;
4738;SDS011;2383;48.632;10.156;2022-10-22T15:13:55;1.75;;;1.10;;
4738;SDS011;2383;48.632;10.156;2022-10-22T15:17:57;3.15;;;1.65;;
4738;SDS011;2383;48.632;10.156;2022-10-22T15:21:59;4.13;;;1.90;;
4738;SDS011;2383;48.632;10.156;2022-10-22T15:26:00;3.35;;;1.55;;
4738;SDS011;2383;48.632;10.156;2022-10-22T15:30:03;3.20;;;1.77;;
4738;SDS011;2383;48.632;10.156;2022-10-22T15:34:05;4.28;;;2.38;;
4738;SDS011;2383;48.632;10.156;2022-10-22T15:38:07;7.25;;;2.90;;
4738;SDS011;2383;48.632;10.156;2022-10-22T15:42:11;7.68;;;3.20;;
4738;SDS011;2383;48.632;10.156;2022-10-22T15:46:16;10.75;;;3.60;;
4738;SDS011;2383;48.632;10.156;2022-10-22T15:50:19;12.95;;;3.95;;
4738;SDS011;2383;48.632;10.156;2022-10-22T15:54:22;12.98;;;5.50;;
4738;SDS011;2383;48.632;10.156;2022-10-22T15:58:25;11.93;;;8.07;;
4738;SDS011;2383;48.632;10.156;2022-10-22T16:02:27;13.15;;;9.27;;
4738;SDS011;2383;48.632;10.156;2022-10-22T16:06:30;14.60;;;11.50;;
4738;SDS011;2383;48.632;10.156;2022-10-22T16:10:32;13.10;;;8.95;;
4738;SDS011;2383;48.632;10.156;2022-10-22T16:14:34;15.75;;;7.93;;
4738;SDS011;2383;48.632;10.156;2022-10-22T16:18:39;14.05;;;6.53;;
4738;SDS011;2383;48.632;10.156;2022-10-22T16:22:41;9.25;;;4.10;;
4738;SDS011;2383;48.632;10.156;2022-10-22T16:26:43;7.50;;;4.20;;
4738;SDS011;2383;48.632;10.156;2022-10-22T16:30:45;12.73;;;4.32;;
4738;SDS011;2383;48.632;10.156;2022-10-22T16:34:47;9.45;;;5.40;;
4738;SDS011;2383;48.632;10.156;2022-10-22T16:38:51;8.30;;;6.10;;
4738;SDS011;2383;48.632;10.156;2022-10-22T16:42:55;7.47;;;3.15;;
4738;SDS011;2383;48.632;10.156;2022-10-22T16:46:56;4.80;;;1.90;;
4738;SDS011;2383;48.632;10.156;2022-10-22T16:50:59;6.35;;;2.70;;
4738;SDS011;2383;48.632;10.156;2022-10-22T16:55:05;4.45;;;1.50;;
4738;SDS011;2383;48.632;10.156;2022-10-22T16:59:10;7.18;;;2.33;;
4738;SDS011;2383;48.632;10.156;2022-10-22T17:03:13;7.80;;;2.30;;
4738;SDS011;2383;48.632;10.156;2022-10-22T17:07:14;9.65;;;2.22;;
4738;SDS011;2383;48.632;10.156;2022-10-22T17:11:18;6.30;;;1.88;;
4738;SDS011;2383;48.632;10.156;2022-10-22T17:15:21;7.35;;;2.35;;
4738;SDS011;2383;48.632;10.156;2022-10-22T17:19:23;9.45;;;3.63;;
4738;SDS011;2383;48.632;10.156;2022-10-22T17:23:25;10.32;;;5.05;;
4738;SDS011;2383;48.632;10.156;2022-10-22T17:27:30;13.60;;;6.90;;
4738;SDS011;2383;48.632;10.156;2022-10-22T17:31:36;17.70;;;10.10;;
4738;SDS011;2383;48.632;10.156;2022-10-22T17:35:39;8.60;;;4.90;;
4738;SDS011;2383;48.632;10.156;2022-10-22T17:39:41;7.68;;;1.60;;
4738;SDS011;2383;48.632;10.156;2022-10-22T17:43:43;8.35;;;1.95;;
4738;SDS011;2383;48.632;10.156;2022-10-22T17:47:46;8.90;;;2.25;;
4738;SDS011;2383;48.632;10.156;2022-10-22T17:51:47;14.95;;;8.40;;
4738;SDS011;2383;48.632;10.156;2022-10-22T17:55:57;7.90;;;3.42;;
4738;SDS011;2383;48.632;10.156;2022-10-22T18:00:05;13.40;;;5.45;;
4738;SDS011;2383;48.632;10.156;2022-10-22T18:04:09;11.52;;;4.72;;
4738;SDS011;2383;48.632;10.156;2022-10-22T18:08:13;11.88;;;5.43;;
4738;SDS011;2383;48.632;10.156;2022-10-22T18:12:15;9.52;;;6.95;;
4738;SDS011;2383;48.632;10.156;2022-10-22T18:16:18;20.65;;;7.97;;
4738;SDS011;2383;48.632;10.156;2022-10-22T18:20:20;12.38;;;7.18;;
4738;SDS011;2383;48.632;10.156;2022-10-22T18:24:22;14.15;;;9.05;;
4738;SDS011;2383;48.632;10.156;2022-10-22T18:28:24;17.40;;;8.77;;
4738;SDS011;2383;48.632;10.156;2022-10-22T18:32:25;18.52;;;9.85;;
4738;SDS011;2383;48.632;10.156;2022-10-22T18:36:29;8.63;;;4.70;;
4738;SDS011;2383;48.632;10.156;2022-10-22T18:40:30;8.55;;;4.60;;
4738;SDS011;2383;48.632;10.156;2022-10-22T18:44:33;9.57;;;3.83;;
4738;SDS011;2383;48.632;10.156;2022-10-22T18:48:35;8.33;;;3.60;;
4738;SDS011;2383;48.632;10.156;2022-10-22T18:52:37;10.23;;;4.38;;
4738;SDS011;2383;48.632;10.156;2022-10-22T18:56:39;5.80;;;3.90;;
4738;SDS011;2383;48.632;10.156;2022-10-22T19:00:41;15.47;;;7.60;;
4738;SDS011;2383;48.632;10.156;2022-10-22T19:04:43;10.77;;;3.70;;
4738;SDS011;2383;48.632;10.156;2022-10-22T19:08:46;11.97;;;4.43;;
4738;SDS011;2383;48.632;10.156;2022-10-22T19:12:51;11.83;;;5.37;;
4738;SDS011;2383;48.632;10.156;2022-10-22T19:16:53;8.80;;;5.40;;
4738;SDS011;2383;48.632;10.156;2022-10-22T19:20:59;12.38;;;6.50;;
4738;SDS011;2383;48.632;10.156;2022-10-22T19:25:01;6.03;;;3.58;;
4738;SDS011;2383;48.632;10.156;2022-10-22T19:29:08;7.47;;;3.08;;
4738;SDS011;2383;48.632;10.156;2022-10-22T19:33:13;6.90;;;3.92;;
4738;SDS011;2383;48.632;10.156;2022-10-22T19:37:15;8.50;;;3.35;;
4738;SDS011;2383;48.632;10.156;2022-10-22T19:41:18;13.43;;;5.30;;
4738;SDS011;2383;48.632;10.156;2022-10-22T19:45:21;9.23;;;6.10;;
4738;SDS011;2383;48.632;10.156;2022-10-22T19:49:23;13.30;;;6.00;;
4738;SDS011;2383;48.632;10.156;2022-10-22T19:53:25;12.60;;;5.13;;
4738;SDS011;2383;48.632;10.156;2022-10-22T19:57:26;12.80;;;6.60;;
4738;SDS011;2383;48.632;10.156;2022-10-22T20:01:30;17.02;;;6.63;;
4738;SDS011;2383;48.632;10.156;2022-10-22T20:05:32;15.57;;;9.30;;
4738;SDS011;2383;48.632;10.156;2022-10-22T20:09:34;10.70;;;8.07;;
4738;SDS011;2383;48.632;10.156;2022-10-22T20:13:36;12.90;;;8.85;;
4738;SDS011;2383;48.632;10.156;2022-10-22T20:17:38;16.50;;;7.20;;
4738;SDS011;2383;48.632;10.156;2022-10-22T20:21:40;12.60;;;6.93;;
4738;SDS011;2383;48.632;10.156;2022-10-22T20:25:44;11.30;;;5.80;;
4738;SDS011;2383;48.632;10.156;2022-10-22T20:29:47;10.13;;;5.18;;
4738;SDS011;2383;48.632;10.156;2022-10-22T20:33:48;10.52;;;5.20;;
4738;SDS011;2383;48.632;10.156;2022-10-22T20:37:51;10.48;;;5.97;;
4738;SDS011;2383;48.632;10.156;2022-10-22T20:41:52;10.13;;;5.93;;
4738;SDS011;2383;48.632;10.156;2022-10-22T20:45:54;14.30;;;5.70;;
4738;SDS011;2383;48.632;10.156;2022-10-22T20:49:56;10.43;;;6.00;;
4738;SDS011;2383;48.632;10.156;2022-10-22T20:53:58;10.77;;;5.30;;
4738;SDS011;2383;48.632;10.156;2022-10-22T20:57:59;10.65;;;5.57;;
4738;SDS011;2383;48.632;10.156;2022-10-22T21:02:01;8.27;;;5.17;;
4738;SDS011;2383;48.632;10.156;2022-10-22T21:06:08;11.60;;;5.65;;
4738;SDS011;2383;48.632;10.156;2022-10-22T21:10:09;10.77;;;6.82;;
4738;SDS011;2383;48.632;10.156;2022-10-22T21:14:13;9.47;;;5.00;;
4738;SDS011;2383;48.632;10.156;2022-10-22T21:18:15;10.10;;;6.20;;
4738;SDS011;2383;48.632;10.156;2022-10-22T21:22:17;12.30;;;6.03;;
4738;SDS011;2383;48.632;10.156;2022-10-22T21:26:19;12.50;;;4.38;;
4738;SDS011;2383;48.632;10.156;2022-10-22T21:30:21;10.57;;;5.00;;
4738;SDS011;2383;48.632;10.156;2022-10-22T21:34:23;6.32;;;3.83;;
4738;SDS011;2383;48.632;10.156;2022-10-22T21:38:25;10.77;;;4.60;;
4738;SDS011;2383;48.632;10.156;2022-10-22T21:42:27;7.00;;;5.07;;
4738;SDS011;2383;48.632;10.156;2022-10-22T21:46:29;9.57;;;5.13;;
4738;SDS011;2383;48.632;10.156;2022-10-22T21:50:30;11.37;;;4.67;;
4738;SDS011;2383;48.632;10.156;2022-10-22T21:54:32;6.30;;;3.80;;
4738;SDS011;2383;48.632;10.156;2022-10-22T21:58:37;8.13;;;3.90;;
4738;SDS011;2383;48.632;10.156;2022-10-22T22:02:39;9.43;;;4.97;;
4738;SDS011;2383;48.632;10.156;2022-10-22T22:06:41;10.03;;;4.67;;
4738;SDS011;2383;48.632;10.156;2022-10-22T22:10:43;11.60;;;4.33;;
4738;SDS011;2383;48.632;10.156;2022-10-22T22:14:44;14.23;;;5.35;;
4738;SDS011;2383;48.632;10.156;2022-10-22T22:18:46;9.98;;;4.70;;
4738;SDS011;2383;48.632;10.156;2022-10-22T22:22:48;9.00;;;3.97;;
4738;SDS011;2383;48.632;10.156;2022-10-22T22:26:50;6.45;;;3.50;;
4738;SDS011;2383;48.632;10.156;2022-10-22T22:30:51;5.18;;;3.67;;
4738;SDS011;2383;48.632;10.156;2022-10-22T22:34:53;9.88;;;4.10;;
4738;SDS011;2383;48.632;10.156;2022-10-22T22:38:55;6.87;;;4.07;;
4738;SDS011;2383;48.632;10.156;2022-10-22T22:42:58;11.77;;;3.38;;
4738;SDS011;2383;48.632;10.156;2022-10-22T22:47:00;11.80;;;4.17;;
4738;SDS011;2383;48.632;10.156;2022-10-22T22:51:16;9.50;;;3.23;;
4738;SDS011;2383;48.632;10.156;2022-10-22T22:55:17;8.17;;;3.40;;
4738;SDS011;2383;48.632;10.156;2022-10-22T22:59:20;6.00;;;3.40;;
4738;SDS011;2383;48.632;10.156;2022-10-22T23:03:22;9.50;;;3.43;;
4738;SDS011;2383;48.632;10.156;2022-10-22T23:07:24;6.00;;;3.37;;
4738;SDS011;2383;48.632;10.156;2022-10-22T23:11:26;6.40;;;3.30;;
4738;SDS011;2383;48.632;10.156;2022-10-22T23:15:28;4.77;;;2.97;;
4738;SDS011;2383;48.632;10.156;2022-10-22T23:19:30;9.47;;;3.57;;
4738;SDS011;2383;48.632;10.156;2022-10-22T23:23:32;8.75;;;4.00;;
4738;SDS011;2383;48.632;10.156;2022-10-22T23:27:34;6.33;;;4.00;;
4738;SDS011;2383;48.632;10.156;2022-10-22T23:31:36;12.93;;;4.53;;
4738;SDS011;2383;48.632;10.156;2022-10-22T23:35:38;12.52;;;4.18;;
4738;SDS011;2383;48.632;10.156;2022-10-22T23:39:41;13.33;;;5.00;;
4738;SDS011;2383;48.632;10.156;2022-10-22T23:43:43;14.03;;;5.43;;
4738;SDS011;2383;48.632;10.156;2022-10-22T23:47:45;11.23;;;4.63;;
4738;SDS011;2383;48.632;10.156;2022-10-22T23:51:47;11.07;;;4.93;;
4738;SDS011;2383;48.632;10.156;2022-10-22T23:55:48;23.30;;;12.73;;
4738;SDS011;2383;48.632;10.156;2022-10-22T23:59:51;16.70;;;9.00;;
